createdAt,value
2022-12-27T00:00:26.914Z,1031.06
2022-12-27T00:01:27.511Z,1030.98
2022-12-27T00:02:28.213Z,1031.01
2022-12-27T00:03:28.870Z,1030.99
2022-12-27T00:04:29.464Z,1031.05
2022-12-27T00:05:30.133Z,1031.09
2022-12-27T00:06:30.796Z,1031.08
2022-12-27T00:07:31.399Z,1031.03
2022-12-27T00:08:31.995Z,1031.05
2022-12-27T00:09:32.749Z,1031.01
2022-12-27T00:10:33.345Z,1031.02
2022-12-27T00:11:34.096Z,1030.97
2022-12-27T00:12:34.743Z,1031.02
2022-12-27T00:13:35.339Z,1030.98
2022-12-27T00:14:35.931Z,1030.98
2022-12-27T00:15:36.540Z,1030.98
2022-12-27T00:16:37.193Z,1031.04
2022-12-27T00:17:37.902Z,1031.08
2022-12-27T00:18:38.480Z,1030.92
2022-12-27T00:19:39.090Z,1030.93
2022-12-27T00:20:39.673Z,1030.90
2022-12-27T00:21:40.277Z,1030.91
2022-12-27T00:22:40.938Z,1030.98
2022-12-27T00:23:41.547Z,1030.95
2022-12-27T00:24:42.141Z,1030.96
2022-12-27T00:25:42.738Z,1031.02
2022-12-27T00:26:43.343Z,1030.95
2022-12-27T00:27:43.940Z,1030.98
2022-12-27T00:28:44.540Z,1031.01
2022-12-27T00:29:45.138Z,1031.03
2022-12-27T00:30:46.655Z,1030.98
2022-12-27T00:31:48.127Z,1030.99
2022-12-27T00:32:48.782Z,1030.98
2022-12-27T00:33:49.376Z,1030.96
2022-12-27T00:34:50.033Z,1030.88
2022-12-27T00:35:50.623Z,1030.85
2022-12-27T00:36:51.230Z,1030.89
2022-12-27T00:37:51.893Z,1030.85
2022-12-27T00:38:53.351Z,1030.80
2022-12-27T00:39:53.992Z,1030.80
2022-12-27T00:40:54.592Z,1030.84
2022-12-27T00:41:55.187Z,1030.89
2022-12-27T00:42:55.794Z,1030.89
2022-12-27T00:43:56.466Z,1030.80
2022-12-27T00:44:57.058Z,1030.79
2022-12-27T00:45:57.693Z,1030.82
2022-12-27T00:46:58.378Z,1030.77
2022-12-27T00:47:58.971Z,1030.80
2022-12-27T00:48:59.575Z,1030.82
2022-12-27T00:50:00.169Z,1030.84
2022-12-27T00:51:00.773Z,1030.77
2022-12-27T00:52:01.368Z,1030.80
2022-12-27T00:53:01.970Z,1030.75
2022-12-27T00:54:02.562Z,1030.76
2022-12-27T00:55:03.165Z,1030.76
2022-12-27T00:56:03.759Z,1030.80
2022-12-27T00:57:04.364Z,1030.77
2022-12-27T00:58:04.959Z,1030.77
2022-12-27T00:59:05.578Z,1030.79
2022-12-27T01:00:10.096Z,1030.80
2022-12-27T01:01:07.787Z,1030.77
2022-12-27T01:02:08.471Z,1030.79
2022-12-27T01:03:09.079Z,1030.83
2022-12-27T01:04:09.706Z,1030.78
2022-12-27T01:05:10.286Z,1030.77
2022-12-27T01:06:10.883Z,1030.72
2022-12-27T01:07:11.489Z,1030.77
2022-12-27T01:08:12.077Z,1030.72
2022-12-27T01:09:12.680Z,1030.71
2022-12-27T01:10:13.278Z,1030.80
2022-12-27T01:11:13.877Z,1030.82
2022-12-27T01:12:14.473Z,1030.77
2022-12-27T01:13:15.082Z,1030.81
2022-12-27T01:14:15.684Z,1030.62
2022-12-27T01:15:16.275Z,1030.74
2022-12-27T01:16:16.933Z,1030.81
2022-12-27T01:17:18.189Z,1030.80
2022-12-27T01:18:18.785Z,1030.75
2022-12-27T01:19:19.389Z,1030.77
2022-12-27T01:20:19.974Z,1030.74
2022-12-27T01:21:20.579Z,1030.76
2022-12-27T01:22:21.178Z,1030.81
2022-12-27T01:23:21.780Z,1030.75
2022-12-27T01:24:22.375Z,1030.75
2022-12-27T01:25:22.979Z,1030.75
2022-12-27T01:26:23.576Z,1030.76
2022-12-27T01:27:24.179Z,1030.73
2022-12-27T01:28:24.775Z,1030.78
2022-12-27T01:29:25.375Z,1030.71
2022-12-27T01:30:25.975Z,1030.75
2022-12-27T01:31:26.679Z,1030.77
2022-12-27T01:32:27.279Z,1030.79
2022-12-27T01:33:27.881Z,1030.78
2022-12-27T01:34:28.480Z,1030.74
2022-12-27T01:35:29.077Z,1030.81
2022-12-27T01:36:29.673Z,1030.67
2022-12-27T01:37:30.345Z,1030.75
2022-12-27T01:38:30.926Z,1030.69
2022-12-27T01:39:31.524Z,1030.72
2022-12-27T01:40:32.170Z,1030.63
2022-12-27T01:41:32.821Z,1030.65
2022-12-27T01:42:33.425Z,1030.66
2022-12-27T01:43:34.019Z,1030.54
2022-12-27T01:44:34.613Z,1030.60
2022-12-27T01:45:35.403Z,1030.59
2022-12-27T01:46:36.074Z,1030.53
2022-12-27T01:47:36.689Z,1030.56
2022-12-27T01:48:37.271Z,1030.54
2022-12-27T01:49:38.721Z,1030.55
2022-12-27T01:50:39.341Z,1030.51
2022-12-27T01:51:39.925Z,1030.51
2022-12-27T01:52:40.524Z,1030.49
2022-12-27T01:53:41.189Z,1030.66
2022-12-27T01:54:41.852Z,1030.50
2022-12-27T01:55:42.465Z,1030.52
2022-12-27T01:56:43.056Z,1030.57
2022-12-27T01:57:43.660Z,1030.59
2022-12-27T01:58:44.247Z,1030.60
2022-12-27T01:59:44.852Z,1030.65
2022-12-27T02:00:45.582Z,1030.60
2022-12-27T02:01:46.291Z,1030.58
2022-12-27T02:02:47.036Z,1030.53
2022-12-27T02:03:47.748Z,1030.61
2022-12-27T02:04:48.341Z,1030.55
2022-12-27T02:05:48.969Z,1030.59
2022-12-27T02:06:49.609Z,1030.57
2022-12-27T02:07:50.207Z,1030.62
2022-12-27T02:08:50.805Z,1030.56
2022-12-27T02:09:51.408Z,1030.66
2022-12-27T02:10:52.010Z,1030.61
2022-12-27T02:11:52.620Z,1030.68
2022-12-27T02:12:53.224Z,1030.65
2022-12-27T02:13:53.824Z,1030.70
2022-12-27T02:14:54.412Z,1030.62
2022-12-27T02:15:55.021Z,1030.67
2022-12-27T02:16:55.667Z,1030.63
2022-12-27T02:17:56.264Z,1030.71
2022-12-27T02:18:56.861Z,1030.71
2022-12-27T02:19:57.471Z,1030.68
2022-12-27T02:20:58.130Z,1030.71
2022-12-27T02:21:58.733Z,1030.69
2022-12-27T02:22:59.326Z,1030.67
2022-12-27T02:23:59.929Z,1030.73
2022-12-27T02:25:00.666Z,1030.71
2022-12-27T02:26:01.472Z,1030.66
2022-12-27T02:27:02.121Z,1030.71
2022-12-27T02:28:02.722Z,1030.70
2022-12-27T02:29:03.317Z,1030.74
2022-12-27T02:30:03.919Z,1030.76
2022-12-27T02:31:04.550Z,1030.74
2022-12-27T02:32:05.169Z,1030.79
2022-12-27T02:33:05.773Z,1030.74
2022-12-27T02:34:06.437Z,1030.79
2022-12-27T02:35:07.101Z,1030.87
2022-12-27T02:36:07.707Z,1030.80
2022-12-27T02:37:08.302Z,1030.86
2022-12-27T02:38:08.904Z,1030.91
2022-12-27T02:39:09.497Z,1030.92
2022-12-27T02:40:10.113Z,1030.91
2022-12-27T02:41:10.698Z,1030.96
2022-12-27T02:42:11.300Z,1030.93
2022-12-27T02:43:11.894Z,1030.93
2022-12-27T02:44:12.495Z,1030.95
2022-12-27T02:45:13.087Z,1031.04
2022-12-27T02:46:18.455Z,1030.97
2022-12-27T02:47:15.332Z,1031.00
2022-12-27T02:48:15.931Z,1030.99
2022-12-27T02:49:16.675Z,1031.01
2022-12-27T02:50:17.293Z,1031.01
2022-12-27T02:51:18.032Z,1031.04
2022-12-27T02:52:18.589Z,1031.03
2022-12-27T02:53:19.182Z,1031.01
2022-12-27T02:54:19.836Z,1031.01
2022-12-27T02:55:20.482Z,1031.06
2022-12-27T02:56:21.087Z,1031.08
2022-12-27T02:57:21.672Z,1031.04
2022-12-27T02:58:22.334Z,1031.07
2022-12-27T02:59:22.928Z,1031.10
2022-12-27T03:00:23.531Z,1031.06
2022-12-27T03:01:24.231Z,1031.08
2022-12-27T03:02:25.012Z,1031.05
2022-12-27T03:03:25.689Z,1030.99
2022-12-27T03:04:26.288Z,1031.04
2022-12-27T03:05:26.936Z,1031.06
2022-12-27T03:06:27.537Z,1031.11
2022-12-27T03:07:28.125Z,1031.03
2022-12-27T03:08:28.726Z,1031.08
2022-12-27T03:09:29.321Z,1031.14
2022-12-27T03:10:29.920Z,1031.15
2022-12-27T03:11:30.524Z,1031.14
2022-12-27T03:12:31.112Z,1031.13
2022-12-27T03:13:31.707Z,1031.10
2022-12-27T03:14:32.308Z,1031.12
2022-12-27T03:15:33.528Z,1031.15
2022-12-27T03:16:34.206Z,1031.20
2022-12-27T03:17:34.805Z,1031.19
2022-12-27T03:18:35.401Z,1031.17
2022-12-27T03:19:36.001Z,1031.19
2022-12-27T03:20:36.604Z,1031.16
2022-12-27T03:21:37.201Z,1031.14
2022-12-27T03:22:37.804Z,1031.16
2022-12-27T03:23:38.400Z,1031.21
2022-12-27T03:24:39.002Z,1031.19
2022-12-27T03:25:39.605Z,1031.23
2022-12-27T03:26:40.197Z,1031.19
2022-12-27T03:27:40.789Z,1031.21
2022-12-27T03:28:41.400Z,1031.18
2022-12-27T03:29:42.050Z,1031.30
2022-12-27T03:30:42.667Z,1031.22
2022-12-27T03:31:43.283Z,1031.20
2022-12-27T03:32:43.887Z,1031.22
2022-12-27T03:33:44.478Z,1031.22
2022-12-27T03:34:45.081Z,1031.22
2022-12-27T03:35:45.676Z,1031.21
2022-12-27T03:36:46.279Z,1031.15
2022-12-27T03:37:46.875Z,1031.20
2022-12-27T03:38:47.539Z,1031.19
2022-12-27T03:39:48.139Z,1031.16
2022-12-27T03:40:48.734Z,1031.22
2022-12-27T03:41:49.328Z,1031.19
2022-12-27T03:42:49.939Z,1031.19
2022-12-27T03:43:50.523Z,1031.21
2022-12-27T03:44:51.123Z,1031.23
2022-12-27T03:45:51.715Z,1031.28
2022-12-27T03:46:52.320Z,1031.24
2022-12-27T03:47:52.915Z,1031.26
2022-12-27T03:48:53.519Z,1031.32
2022-12-27T03:49:54.111Z,1031.17
2022-12-27T03:50:55.563Z,1031.28
2022-12-27T03:51:56.180Z,1031.23
2022-12-27T03:52:57.618Z,1031.26
2022-12-27T03:53:58.271Z,1031.19
2022-12-27T03:54:58.875Z,1031.20
2022-12-27T03:55:59.470Z,1031.19
2022-12-27T03:57:00.097Z,1031.18
2022-12-27T03:58:00.675Z,1031.20
2022-12-27T03:59:02.078Z,1031.19
2022-12-27T04:00:02.673Z,1031.27
2022-12-27T04:01:03.290Z,1031.18
2022-12-27T04:02:03.958Z,1031.17
2022-12-27T04:03:04.633Z,1031.26
2022-12-27T04:04:05.297Z,1031.29
2022-12-27T04:05:06.697Z,1031.21
2022-12-27T04:06:07.343Z,1031.13
2022-12-27T04:07:07.958Z,1031.20
2022-12-27T04:08:08.590Z,1031.17
2022-12-27T04:09:10.029Z,1031.21
2022-12-27T04:10:10.626Z,1031.15
2022-12-27T04:11:11.225Z,1031.18
2022-12-27T04:12:11.817Z,1031.09
2022-12-27T04:13:12.421Z,1031.14
2022-12-27T04:14:13.016Z,1031.10
2022-12-27T04:15:13.622Z,1031.07
2022-12-27T04:16:14.315Z,1031.07
2022-12-27T04:17:14.953Z,1031.07
2022-12-27T04:18:15.550Z,1030.98
2022-12-27T04:19:16.152Z,1031.06
2022-12-27T04:20:17.542Z,1031.03
2022-12-27T04:21:18.146Z,1031.01
2022-12-27T04:22:18.739Z,1031.00
2022-12-27T04:23:20.142Z,1031.03
2022-12-27T04:24:20.745Z,1031.04
2022-12-27T04:25:21.339Z,1031.08
2022-12-27T04:26:21.938Z,1031.04
2022-12-27T04:27:22.539Z,1031.02
2022-12-27T04:28:23.133Z,1031.03
2022-12-27T04:29:23.737Z,1031.02
2022-12-27T04:30:24.334Z,1031.07
2022-12-27T04:31:24.965Z,1031.01
2022-12-27T04:32:25.564Z,1030.96
2022-12-27T04:33:26.171Z,1031.01
2022-12-27T04:34:26.761Z,1030.99
2022-12-27T04:35:27.429Z,1031.01
2022-12-27T04:36:28.040Z,1030.96
2022-12-27T04:37:28.657Z,1030.95
2022-12-27T04:38:29.278Z,1030.97
2022-12-27T04:39:29.898Z,1030.94
2022-12-27T04:40:30.543Z,1030.92
2022-12-27T04:41:31.157Z,1030.94
2022-12-27T04:42:31.756Z,1030.94
2022-12-27T04:43:32.353Z,1030.94
2022-12-27T04:44:32.970Z,1030.87
2022-12-27T04:45:33.546Z,1030.89
2022-12-27T04:46:34.222Z,1030.89
2022-12-27T04:47:34.818Z,1030.87
2022-12-27T04:48:35.419Z,1030.92
2022-12-27T04:49:36.021Z,1030.92
2022-12-27T04:50:36.622Z,1030.95
2022-12-27T04:51:37.219Z,1030.92
2022-12-27T04:52:38.055Z,1030.97
2022-12-27T04:53:38.781Z,1030.95
2022-12-27T04:54:39.450Z,1030.98
2022-12-27T04:55:40.052Z,1030.96
2022-12-27T04:56:40.641Z,1031.02
2022-12-27T04:57:41.305Z,1031.07
2022-12-27T04:58:41.905Z,1030.95
2022-12-27T04:59:42.519Z,1031.07
2022-12-27T05:00:43.103Z,1031.03
2022-12-27T05:01:43.791Z,1031.04
2022-12-27T05:02:44.696Z,1031.09
2022-12-27T05:03:45.485Z,1031.09
2022-12-27T05:04:46.096Z,1031.03
2022-12-27T05:05:46.685Z,1031.11
2022-12-27T05:06:47.282Z,1031.04
2022-12-27T05:07:47.896Z,1030.99
2022-12-27T05:08:48.486Z,1031.11
2022-12-27T05:09:49.120Z,1030.96
2022-12-27T05:10:49.771Z,1031.09
2022-12-27T05:11:50.417Z,1031.05
2022-12-27T05:12:51.015Z,1031.15
2022-12-27T05:13:51.608Z,1031.09
2022-12-27T05:14:52.211Z,1031.08
2022-12-27T05:15:52.856Z,1031.11
2022-12-27T05:16:53.465Z,1031.13
2022-12-27T05:17:54.056Z,1031.12
2022-12-27T05:18:54.660Z,1031.09
2022-12-27T05:19:55.253Z,1031.17
2022-12-27T05:20:55.855Z,1031.13
2022-12-27T05:21:56.455Z,1031.18
2022-12-27T05:22:57.200Z,1031.15
2022-12-27T05:24:01.908Z,1031.12
2022-12-27T05:24:59.395Z,1031.15
2022-12-27T05:25:59.988Z,1031.05
2022-12-27T05:27:00.588Z,1031.05
2022-12-27T05:28:01.181Z,1031.13
2022-12-27T05:29:01.783Z,1031.14
2022-12-27T05:30:02.398Z,1031.14
2022-12-27T05:31:03.017Z,1031.09
2022-12-27T05:32:07.980Z,1031.16
2022-12-27T05:33:05.246Z,1031.12
2022-12-27T05:34:05.835Z,1031.23
2022-12-27T05:35:07.237Z,1031.24
2022-12-27T05:36:07.832Z,1031.20
2022-12-27T05:37:08.445Z,1031.23
2022-12-27T05:38:09.027Z,1031.25
2022-12-27T05:39:09.630Z,1031.24
2022-12-27T05:40:10.225Z,1031.21
2022-12-27T05:41:10.834Z,1031.30
2022-12-27T05:42:11.429Z,1031.30
2022-12-27T05:43:12.088Z,1031.30
2022-12-27T05:44:12.740Z,1031.35
2022-12-27T05:45:13.318Z,1031.28
2022-12-27T05:46:14.752Z,1031.29
2022-12-27T05:47:15.394Z,1031.37
2022-12-27T05:48:15.989Z,1031.29
2022-12-27T05:49:16.590Z,1031.32
2022-12-27T05:50:17.184Z,1031.37
2022-12-27T05:51:17.787Z,1031.38
2022-12-27T05:52:18.384Z,1031.32
2022-12-27T05:53:18.981Z,1031.38
2022-12-27T05:54:19.622Z,1031.31
2022-12-27T05:55:20.228Z,1031.32
2022-12-27T05:56:20.876Z,1031.31
2022-12-27T05:57:21.471Z,1031.26
2022-12-27T05:58:22.067Z,1031.29
2022-12-27T05:59:22.665Z,1031.31
2022-12-27T06:00:23.261Z,1031.30
2022-12-27T06:01:23.930Z,1031.36
2022-12-27T06:02:24.666Z,1031.30
2022-12-27T06:03:25.419Z,1031.29
2022-12-27T06:04:26.065Z,1031.34
2022-12-27T06:05:26.661Z,1031.26
2022-12-27T06:06:27.258Z,1031.19
2022-12-27T06:07:27.861Z,1031.26
2022-12-27T06:08:28.521Z,1031.32
2022-12-27T06:09:29.129Z,1031.33
2022-12-27T06:10:29.729Z,1031.30
2022-12-27T06:11:30.323Z,1031.29
2022-12-27T06:12:30.932Z,1031.24
2022-12-27T06:13:32.435Z,1031.34
2022-12-27T06:14:33.036Z,1031.23
2022-12-27T06:15:33.633Z,1031.22
2022-12-27T06:16:34.279Z,1031.26
2022-12-27T06:17:35.756Z,1031.31
2022-12-27T06:18:36.375Z,1031.33
2022-12-27T06:19:37.021Z,1031.30
2022-12-27T06:20:37.613Z,1031.38
2022-12-27T06:21:38.217Z,1031.33
2022-12-27T06:22:38.808Z,1031.37
2022-12-27T06:23:39.416Z,1031.37
2022-12-27T06:24:40.009Z,1031.43
2022-12-27T06:25:40.618Z,1031.41
2022-12-27T06:26:41.281Z,1031.37
2022-12-27T06:27:41.881Z,1031.39
2022-12-27T06:28:43.337Z,1031.39
2022-12-27T06:29:43.920Z,1031.43
2022-12-27T06:30:44.561Z,1031.44
2022-12-27T06:31:45.292Z,1031.40
2022-12-27T06:32:45.949Z,1031.40
2022-12-27T06:33:46.608Z,1031.46
2022-12-27T06:34:47.344Z,1031.43
2022-12-27T06:35:47.932Z,1031.43
2022-12-27T06:36:48.532Z,1031.37
2022-12-27T06:37:49.128Z,1031.48
2022-12-27T06:38:49.719Z,1031.44
2022-12-27T06:39:50.325Z,1031.46
2022-12-27T06:40:50.913Z,1031.50
2022-12-27T06:41:52.365Z,1031.43
2022-12-27T06:42:52.959Z,1031.52
2022-12-27T06:43:53.561Z,1031.54
2022-12-27T06:44:54.172Z,1031.52
2022-12-27T06:45:54.800Z,1031.48
2022-12-27T06:46:55.436Z,1031.49
2022-12-27T06:47:56.024Z,1031.55
2022-12-27T06:48:56.617Z,1031.50
2022-12-27T06:49:57.233Z,1031.45
2022-12-27T06:50:58.479Z,1031.50
2022-12-27T06:51:59.925Z,1031.57
2022-12-27T06:53:00.621Z,1031.54
2022-12-27T06:54:01.299Z,1031.59
2022-12-27T06:55:01.877Z,1031.57
2022-12-27T06:56:02.481Z,1031.56
2022-12-27T06:57:03.078Z,1031.59
2022-12-27T06:58:03.678Z,1031.61
2022-12-27T06:59:04.277Z,1031.64
2022-12-27T07:00:04.939Z,1031.68
2022-12-27T07:01:05.611Z,1031.69
2022-12-27T07:02:06.382Z,1031.72
2022-12-27T07:03:07.055Z,1031.68
2022-12-27T07:04:07.657Z,1031.71
2022-12-27T07:05:08.254Z,1031.73
2022-12-27T07:06:08.927Z,1031.73
2022-12-27T07:07:15.303Z,1031.73
2022-12-27T07:08:11.115Z,1031.69
2022-12-27T07:09:11.713Z,1031.82
2022-12-27T07:10:12.314Z,1031.84
2022-12-27T07:11:12.899Z,1031.77
2022-12-27T07:12:13.503Z,1031.73
2022-12-27T07:13:14.108Z,1031.79
2022-12-27T07:14:14.755Z,1031.72
2022-12-27T07:15:15.367Z,1031.86
2022-12-27T07:16:15.987Z,1031.84
2022-12-27T07:17:16.584Z,1031.87
2022-12-27T07:18:17.191Z,1031.89
2022-12-27T07:19:17.850Z,1031.90
2022-12-27T07:20:18.453Z,1031.91
2022-12-27T07:21:19.047Z,1031.93
2022-12-27T07:22:19.663Z,1031.91
2022-12-27T07:23:20.411Z,1031.93
2022-12-27T07:24:21.152Z,1031.93
2022-12-27T07:25:21.705Z,1031.95
2022-12-27T07:26:22.311Z,1031.95
2022-12-27T07:27:22.976Z,1031.89
2022-12-27T07:28:23.579Z,1031.93
2022-12-27T07:29:24.174Z,1031.88
2022-12-27T07:30:24.780Z,1031.90
2022-12-27T07:31:26.259Z,1031.86
2022-12-27T07:32:26.914Z,1031.93
2022-12-27T07:33:27.507Z,1031.94
2022-12-27T07:34:28.255Z,1031.92
2022-12-27T07:35:28.953Z,1031.91
2022-12-27T07:36:29.595Z,1031.97
2022-12-27T07:37:30.223Z,1031.93
2022-12-27T07:38:30.815Z,1031.93
2022-12-27T07:39:31.413Z,1031.90
2022-12-27T07:40:32.014Z,1031.90
2022-12-27T07:41:32.610Z,1031.90
2022-12-27T07:42:33.211Z,1031.87
2022-12-27T07:43:33.836Z,1031.95
2022-12-27T07:44:34.494Z,1032.05
2022-12-27T07:45:35.103Z,1032.02
2022-12-27T07:46:35.745Z,1032.00
2022-12-27T07:47:36.477Z,1032.06
2022-12-27T07:48:37.103Z,1032.04
2022-12-27T07:49:37.686Z,1032.03
2022-12-27T07:50:38.292Z,1032.02
2022-12-27T07:51:38.884Z,1032.08
2022-12-27T07:52:39.490Z,1031.99
2022-12-27T07:53:40.106Z,1032.08
2022-12-27T07:54:40.689Z,1032.09
2022-12-27T07:55:41.283Z,1032.04
2022-12-27T07:56:41.891Z,1032.09
2022-12-27T07:57:42.481Z,1032.09
2022-12-27T07:58:43.080Z,1032.01
2022-12-27T07:59:43.748Z,1031.97
2022-12-27T08:00:44.347Z,1032.03
2022-12-27T08:01:45.090Z,1032.03
2022-12-27T08:02:45.686Z,1032.00
2022-12-27T08:03:46.304Z,1032.00
2022-12-27T08:04:46.885Z,1031.96
2022-12-27T08:05:47.481Z,1031.97
2022-12-27T08:06:48.079Z,1031.96
2022-12-27T08:07:48.672Z,1031.91
2022-12-27T08:08:49.281Z,1031.97
2022-12-27T08:09:49.888Z,1032.08
2022-12-27T08:10:50.467Z,1031.99
2022-12-27T08:11:51.059Z,1032.02
2022-12-27T08:12:51.667Z,1032.02
2022-12-27T08:13:52.254Z,1032.01
2022-12-27T08:14:52.856Z,1031.98
2022-12-27T08:15:53.449Z,1032.02
2022-12-27T08:16:54.145Z,1031.99
2022-12-27T08:17:54.761Z,1032.01
2022-12-27T08:18:55.364Z,1032.12
2022-12-27T08:19:55.960Z,1032.09
2022-12-27T08:20:56.570Z,1032.09
2022-12-27T08:21:57.158Z,1032.14
2022-12-27T08:22:57.760Z,1032.22
2022-12-27T08:23:58.507Z,1032.14
2022-12-27T08:24:59.115Z,1032.21
2022-12-27T08:25:59.767Z,1032.21
2022-12-27T08:27:00.368Z,1032.20
2022-12-27T08:28:00.961Z,1032.21
2022-12-27T08:29:01.574Z,1032.15
2022-12-27T08:30:02.159Z,1032.27
2022-12-27T08:31:02.801Z,1032.21
2022-12-27T08:32:03.420Z,1032.20
2022-12-27T08:33:04.016Z,1032.18
2022-12-27T08:34:04.710Z,1032.14
2022-12-27T08:35:41.749Z,1032.18
2022-12-27T08:36:22.314Z,1032.23
2022-12-27T08:37:08.554Z,1032.27
2022-12-27T08:38:09.148Z,1032.18
2022-12-27T08:39:09.749Z,1032.13
2022-12-27T08:40:10.344Z,1032.25
2022-12-27T08:41:10.953Z,1032.23
2022-12-27T08:42:11.690Z,1032.19
2022-12-27T08:43:12.289Z,1032.14
2022-12-27T08:44:12.894Z,1032.27
2022-12-27T08:45:13.529Z,1032.30
2022-12-27T08:46:14.198Z,1032.25
2022-12-27T08:47:14.808Z,1032.20
2022-12-27T08:48:15.452Z,1032.24
2022-12-27T08:49:16.043Z,1032.23
2022-12-27T08:50:16.636Z,1032.27
2022-12-27T08:51:30.005Z,1032.32
2022-12-27T08:52:19.075Z,1032.32
2022-12-27T08:53:19.741Z,1032.31
2022-12-27T08:54:20.333Z,1032.42
2022-12-27T08:55:21.153Z,1032.45
2022-12-27T08:56:21.752Z,1032.40
2022-12-27T08:57:22.359Z,1032.48
2022-12-27T08:58:22.944Z,1032.47
2022-12-27T08:59:23.538Z,1032.42
2022-12-27T09:00:24.127Z,1032.49
2022-12-27T09:01:24.763Z,1032.56
2022-12-27T09:02:25.519Z,1032.52
2022-12-27T09:03:26.102Z,1032.59
2022-12-27T09:04:26.705Z,1032.54
2022-12-27T09:05:27.299Z,1032.50
2022-12-27T09:06:27.968Z,1032.56
2022-12-27T09:07:28.593Z,1032.52
2022-12-27T09:08:29.205Z,1032.60
2022-12-27T09:09:29.792Z,1032.62
2022-12-27T09:10:30.395Z,1032.62
2022-12-27T09:11:30.999Z,1032.62
2022-12-27T09:12:31.595Z,1032.66
2022-12-27T09:13:32.191Z,1032.62
2022-12-27T09:14:32.799Z,1032.62
2022-12-27T09:15:33.422Z,1032.57
2022-12-27T09:16:34.085Z,1032.53
2022-12-27T09:17:34.716Z,1032.62
2022-12-27T09:18:35.348Z,1032.55
2022-12-27T09:19:35.977Z,1032.52
2022-12-27T09:20:36.577Z,1032.62
2022-12-27T09:21:37.174Z,1032.50
2022-12-27T09:22:37.776Z,1032.56
2022-12-27T09:23:38.372Z,1032.59
2022-12-27T09:24:38.981Z,1032.58
2022-12-27T09:25:39.597Z,1032.59
2022-12-27T09:26:40.190Z,1032.60
2022-12-27T09:27:40.858Z,1032.62
2022-12-27T09:28:41.471Z,1032.61
2022-12-27T09:29:48.123Z,1032.61
2022-12-27T09:30:43.736Z,1032.66
2022-12-27T09:31:44.350Z,1032.71
2022-12-27T09:32:45.053Z,1032.72
2022-12-27T09:33:45.648Z,1032.73
2022-12-27T09:34:46.247Z,1032.76
2022-12-27T09:35:46.842Z,1032.78
2022-12-27T09:36:47.443Z,1032.73
2022-12-27T09:37:48.038Z,1032.76
2022-12-27T09:38:48.643Z,1032.72
2022-12-27T09:39:49.233Z,1032.78
2022-12-27T09:40:49.837Z,1032.78
2022-12-27T09:43:02.937Z,1032.86
2022-12-27T09:43:53.661Z,1032.78
2022-12-27T09:44:54.263Z,1032.78
2022-12-27T09:45:54.879Z,1032.78
2022-12-27T09:46:55.523Z,1032.78
2022-12-27T09:47:56.118Z,1032.78
2022-12-27T09:48:56.769Z,1032.73
2022-12-27T09:49:57.363Z,1032.87
2022-12-27T09:50:57.968Z,1032.78
2022-12-27T09:51:58.710Z,1032.78
2022-12-27T09:52:59.312Z,1032.89
2022-12-27T09:53:59.912Z,1032.71
2022-12-27T09:55:04.672Z,1032.84
2022-12-27T09:56:02.096Z,1032.80
2022-12-27T09:57:19.362Z,1032.85
2022-12-27T09:58:04.344Z,1032.86
2022-12-27T09:59:04.975Z,1032.90
2022-12-27T10:00:05.571Z,1032.89
2022-12-27T10:01:06.235Z,1032.92
2022-12-27T10:02:06.933Z,1032.94
2022-12-27T10:03:07.554Z,1032.95
2022-12-27T10:04:08.156Z,1032.99
2022-12-27T10:05:24.160Z,1033.01
2022-12-27T10:06:10.400Z,1033.08
2022-12-27T10:07:11.005Z,1033.01
2022-12-27T10:08:11.605Z,1032.99
2022-12-27T10:09:12.206Z,1033.08
2022-12-27T10:10:12.800Z,1033.06
2022-12-27T10:11:13.400Z,1033.05
2022-12-27T10:12:13.996Z,1033.08
2022-12-27T10:13:15.133Z,1033.05
2022-12-27T10:14:15.728Z,1033.05
2022-12-27T10:15:16.335Z,1033.05
2022-12-27T10:16:16.982Z,1033.02
2022-12-27T10:17:17.590Z,1033.09
2022-12-27T10:18:18.178Z,1033.05
2022-12-27T10:19:18.779Z,1033.07
2022-12-27T10:20:19.428Z,1033.05
2022-12-27T10:21:20.034Z,1033.02
2022-12-27T10:22:20.622Z,1033.02
2022-12-27T10:23:21.232Z,1033.05
2022-12-27T10:24:21.819Z,1033.04
2022-12-27T10:25:22.427Z,1033.00
2022-12-27T10:26:23.049Z,1033.07
2022-12-27T10:27:23.648Z,1033.05
2022-12-27T10:28:24.241Z,1033.06
2022-12-27T10:29:24.849Z,1033.02
2022-12-27T10:30:25.443Z,1032.99
2022-12-27T10:31:26.094Z,1033.07
2022-12-27T10:32:26.692Z,1033.00
2022-12-27T10:33:27.301Z,1032.99
2022-12-27T10:34:27.896Z,1033.06
2022-12-27T10:35:28.498Z,1033.01
2022-12-27T10:36:29.126Z,1033.00
2022-12-27T10:37:29.741Z,1033.06
2022-12-27T10:38:30.379Z,1033.02
2022-12-27T10:39:30.988Z,1033.04
2022-12-27T10:40:34.544Z,1033.03
2022-12-27T10:41:33.187Z,1032.95
2022-12-27T10:42:33.778Z,1033.01
2022-12-27T10:43:34.381Z,1032.95
2022-12-27T10:44:35.018Z,1032.93
2022-12-27T10:45:35.620Z,1032.99
2022-12-27T10:46:36.251Z,1032.93
2022-12-27T10:47:36.894Z,1032.97
2022-12-27T10:49:02.663Z,1032.93
2022-12-27T10:49:39.088Z,1032.90
2022-12-27T10:50:39.680Z,1032.94
2022-12-27T10:51:40.283Z,1032.98
2022-12-27T10:52:40.880Z,1032.90
2022-12-27T10:53:42.335Z,1032.95
2022-12-27T10:54:42.929Z,1032.94
2022-12-27T10:55:43.534Z,1032.91
2022-12-27T10:56:44.365Z,1032.92
2022-12-27T10:57:44.999Z,1032.97
2022-12-27T10:58:45.716Z,1032.89
2022-12-27T10:59:46.323Z,1032.86
2022-12-27T11:00:46.935Z,1032.87
2022-12-27T11:01:47.631Z,1032.87
2022-12-27T11:02:48.372Z,1032.85
2022-12-27T11:03:49.119Z,1032.88
2022-12-27T11:04:49.713Z,1032.86
2022-12-27T11:05:50.316Z,1032.94
2022-12-27T11:06:50.915Z,1032.93
2022-12-27T11:07:51.515Z,1032.92
2022-12-27T11:08:52.111Z,1032.88
2022-12-27T11:09:52.716Z,1032.89
2022-12-27T11:10:53.311Z,1032.86
2022-12-27T11:11:53.914Z,1032.89
2022-12-27T11:12:54.516Z,1032.84
2022-12-27T11:13:55.179Z,1032.88
2022-12-27T11:14:55.789Z,1032.89
2022-12-27T11:15:58.788Z,1032.84
2022-12-27T11:16:57.960Z,1032.83
2022-12-27T11:17:58.565Z,1032.84
2022-12-27T11:18:59.176Z,1032.77
2022-12-27T11:19:59.843Z,1032.82
2022-12-27T11:21:00.426Z,1032.84
2022-12-27T11:22:01.031Z,1032.83
2022-12-27T11:23:01.631Z,1032.84
2022-12-27T11:24:02.230Z,1032.73
2022-12-27T11:25:02.836Z,1032.80
2022-12-27T11:26:03.434Z,1032.74
2022-12-27T11:27:04.028Z,1032.74
2022-12-27T11:28:04.633Z,1032.66
2022-12-27T11:29:05.231Z,1032.74
2022-12-27T11:30:05.836Z,1032.70
2022-12-27T11:31:06.486Z,1032.68
2022-12-27T11:32:07.126Z,1032.72
2022-12-27T11:33:07.737Z,1032.66
2022-12-27T11:34:08.345Z,1032.67
2022-12-27T11:35:08.924Z,1032.62
2022-12-27T11:36:09.528Z,1032.60
2022-12-27T11:37:10.125Z,1032.63
2022-12-27T11:38:10.729Z,1032.62
2022-12-27T11:39:11.323Z,1032.52
2022-12-27T11:40:11.939Z,1032.60
2022-12-27T11:41:12.522Z,1032.55
2022-12-27T11:42:13.191Z,1032.55
2022-12-27T11:43:13.777Z,1032.48
2022-12-27T11:44:14.380Z,1032.49
2022-12-27T11:45:14.974Z,1032.53
2022-12-27T11:46:15.580Z,1032.47
2022-12-27T11:47:16.202Z,1032.44
2022-12-27T11:48:16.833Z,1032.46
2022-12-27T11:49:17.429Z,1032.50
2022-12-27T11:50:18.079Z,1032.43
2022-12-27T11:51:18.678Z,1032.46
2022-12-27T11:52:19.293Z,1032.46
2022-12-27T11:53:19.931Z,1032.43
2022-12-27T11:54:20.533Z,1032.43
2022-12-27T11:55:21.128Z,1032.37
2022-12-27T11:56:21.732Z,1032.43
2022-12-27T11:57:22.374Z,1032.34
2022-12-27T11:58:22.976Z,1032.41
2022-12-27T11:59:23.575Z,1032.36
2022-12-27T12:00:24.273Z,1032.37
2022-12-27T12:01:24.946Z,1032.32
2022-12-27T12:02:26.425Z,1032.42
2022-12-27T12:03:27.059Z,1032.25
2022-12-27T12:04:27.722Z,1032.28
2022-12-27T12:05:28.444Z,1032.34
2022-12-27T12:06:34.289Z,1032.28
2022-12-27T12:07:30.637Z,1032.28
2022-12-27T12:08:31.238Z,1032.30
2022-12-27T12:09:31.833Z,1032.24
2022-12-27T12:10:32.438Z,1032.18
2022-12-27T12:11:33.030Z,1032.23
2022-12-27T12:12:33.637Z,1032.24
2022-12-27T12:13:34.235Z,1032.23
2022-12-27T12:14:34.899Z,1032.17